createdAt,value
2022-10-08T00:01:32.642Z,15.82
2022-10-08T00:04:03.555Z,18.98
2022-10-08T00:06:34.153Z,17.42
2022-10-08T00:09:08.508Z,18.63
2022-10-08T00:11:39.980Z,15.07
2022-10-08T00:14:09.479Z,17.17
2022-10-08T00:16:41.752Z,17.30
2022-10-08T00:19:14.554Z,17.60
2022-10-08T00:21:45.320Z,18.58
2022-10-08T00:24:18.249Z,14.68
2022-10-08T00:26:46.939Z,16.40
2022-10-08T00:29:21.139Z,13.80
2022-10-08T00:31:51.876Z,16.70
2022-10-08T00:34:25.391Z,19.00
2022-10-08T00:36:55.991Z,23.95
2022-10-08T00:39:26.551Z,18.42
2022-10-08T00:41:56.888Z,23.77
2022-10-08T00:44:56.251Z,25.42
2022-10-08T00:47:43.091Z,20.63
2022-10-08T00:50:22.485Z,24.05
2022-10-08T00:52:58.105Z,27.05
2022-10-08T00:55:28.602Z,28.52
2022-10-08T00:58:02.245Z,38.08
2022-10-08T01:00:33.710Z,33.00
2022-10-08T01:03:03.768Z,31.17
2022-10-08T01:05:46.129Z,35.15
2022-10-08T01:08:26.008Z,37.65
2022-10-08T01:11:07.075Z,33.15
2022-10-08T01:13:45.977Z,34.28
2022-10-08T01:16:28.995Z,35.42
2022-10-08T01:19:15.419Z,31.60
2022-10-08T01:22:01.325Z,45.08
2022-10-08T01:24:58.571Z,29.98
2022-10-08T01:27:34.125Z,26.92
2022-10-08T01:30:06.731Z,37.10
2022-10-08T01:32:41.973Z,37.78
2022-10-08T01:35:17.883Z,37.63
2022-10-08T01:37:47.816Z,34.00
2022-10-08T01:40:21.915Z,39.13
2022-10-08T01:42:54.952Z,43.20
2022-10-08T01:45:31.630Z,40.92
2022-10-08T01:48:03.988Z,37.08
2022-10-08T01:50:37.445Z,43.63
2022-10-08T01:53:10.963Z,36.33
2022-10-08T01:55:43.729Z,59.40
2022-10-08T01:58:20.398Z,56.13
2022-10-08T02:00:51.692Z,60.70
2022-10-08T02:03:20.988Z,56.47
2022-10-08T02:05:53.288Z,60.97
2022-10-08T02:08:25.266Z,80.70
2022-10-08T02:10:54.262Z,51.33
2022-10-08T02:13:35.974Z,67.90
2022-10-08T02:16:11.335Z,43.78
2022-10-08T02:18:44.367Z,36.08
2022-10-08T02:21:21.771Z,34.60
2022-10-08T02:23:56.403Z,34.78
2022-10-08T02:26:33.661Z,43.05
2022-10-08T02:29:10.730Z,37.65
2022-10-08T02:31:46.662Z,58.17
2022-10-08T02:34:21.255Z,36.22
2022-10-08T02:36:56.937Z,30.65
2022-10-08T02:39:29.313Z,25.75
2022-10-08T02:42:03.253Z,25.40
2022-10-08T02:44:43.962Z,24.42
2022-10-08T02:47:17.478Z,22.77
2022-10-08T02:49:53.336Z,22.52
2022-10-08T02:52:24.422Z,22.10
2022-10-08T02:54:54.089Z,22.45
2022-10-08T02:57:30.300Z,21.73
2022-10-08T03:00:00.200Z,24.48
2022-10-08T03:02:36.953Z,23.58
2022-10-08T03:05:11.922Z,23.83
2022-10-08T03:07:40.737Z,22.52
2022-10-08T03:10:10.482Z,22.30
2022-10-08T03:12:39.196Z,23.80
2022-10-08T03:15:12.143Z,22.95
2022-10-08T03:17:45.832Z,23.13
2022-10-08T03:20:14.876Z,22.08
2022-10-08T03:22:43.301Z,20.88
2022-10-08T03:25:12.425Z,22.33
2022-10-08T03:27:40.879Z,20.38
2022-10-08T03:30:14.656Z,24.08
2022-10-08T03:32:42.962Z,21.08
2022-10-08T03:35:11.867Z,19.70
2022-10-08T03:37:40.968Z,21.75
2022-10-08T03:40:11.591Z,22.35
2022-10-08T03:42:40.236Z,20.05
2022-10-08T03:45:10.802Z,21.80
2022-10-08T03:47:39.329Z,19.88
2022-10-08T03:50:08.871Z,19.92
2022-10-08T03:52:37.175Z,18.00
2022-10-08T03:55:06.704Z,17.63
2022-10-08T03:57:35.515Z,18.13
2022-10-08T04:00:04.062Z,18.63
2022-10-08T04:02:33.893Z,19.65
2022-10-08T04:05:02.319Z,20.23
2022-10-08T04:07:30.641Z,22.17
2022-10-08T04:09:59.036Z,20.20
2022-10-08T04:12:27.491Z,25.85
2022-10-08T04:14:55.789Z,25.35
2022-10-08T04:17:24.485Z,25.67
2022-10-08T04:19:54.227Z,25.67
2022-10-08T04:22:22.656Z,23.52
2022-10-08T04:24:50.901Z,31.67
2022-10-08T04:27:19.358Z,21.15
2022-10-08T04:29:48.246Z,29.13
2022-10-08T04:32:16.878Z,24.67
2022-10-08T04:34:45.473Z,24.52
2022-10-08T04:37:15.393Z,25.50
2022-10-08T04:39:43.701Z,22.02
2022-10-08T04:42:12.589Z,26.13
2022-10-08T04:44:43.444Z,24.25
2022-10-08T04:47:11.756Z,30.83
2022-10-08T04:49:40.264Z,31.55
2022-10-08T04:52:08.647Z,51.63
2022-10-08T04:54:38.722Z,29.20
2022-10-08T04:57:07.505Z,31.88
2022-10-08T04:59:35.938Z,32.33
2022-10-08T05:02:04.456Z,56.38
2022-10-08T05:04:32.916Z,39.80
2022-10-08T05:07:01.222Z,31.55
2022-10-08T05:09:29.526Z,44.75
2022-10-08T05:11:59.900Z,41.60
2022-10-08T05:14:28.359Z,32.92
2022-10-08T05:16:57.072Z,45.20
2022-10-08T05:19:26.885Z,43.38
2022-10-08T05:21:55.393Z,43.50
2022-10-08T05:24:23.736Z,53.53
2022-10-08T05:26:59.721Z,40.53
2022-10-08T05:29:30.422Z,39.30
2022-10-08T05:31:58.933Z,61.30
2022-10-08T05:34:27.636Z,31.65
2022-10-08T05:36:58.112Z,31.23
2022-10-08T05:39:26.790Z,42.45
2022-10-08T05:41:55.294Z,60.95
2022-10-08T05:44:24.019Z,49.17
2022-10-08T05:46:54.355Z,35.13
2022-10-08T05:49:24.490Z,24.23
2022-10-08T05:51:52.822Z,27.40
2022-10-08T05:54:22.080Z,24.05
2022-10-08T05:56:51.528Z,22.80
2022-10-08T05:59:23.706Z,23.27
2022-10-08T06:01:53.990Z,22.05
2022-10-08T06:04:22.341Z,22.83
2022-10-08T06:06:51.797Z,19.25
2022-10-08T06:09:23.811Z,21.90
2022-10-08T06:11:52.428Z,25.27
2022-10-08T06:14:21.326Z,23.20
2022-10-08T06:16:50.659Z,38.35
2022-10-08T06:19:20.889Z,34.22
2022-10-08T06:21:50.197Z,29.60
2022-10-08T06:24:18.916Z,32.03
2022-10-08T06:26:50.312Z,45.80
2022-10-08T06:29:20.063Z,27.73
2022-10-08T06:31:48.986Z,48.92
2022-10-08T06:34:19.823Z,24.92
2022-10-08T06:36:48.169Z,23.20
2022-10-08T06:39:17.921Z,30.98
2022-10-08T06:41:46.823Z,47.75
2022-10-08T06:44:19.349Z,28.77
2022-10-08T06:46:47.707Z,25.10
2022-10-08T06:49:16.673Z,31.40
2022-10-08T06:51:46.649Z,32.47
2022-10-08T06:54:14.963Z,31.50
2022-10-08T06:56:43.362Z,65.50
2022-10-08T06:59:11.903Z,56.83
2022-10-08T07:01:40.757Z,75.93
2022-10-08T07:04:11.535Z,52.33
2022-10-08T07:06:40.057Z,27.90
2022-10-08T07:09:11.026Z,37.38
2022-10-08T07:11:40.438Z,34.50
2022-10-08T07:14:08.737Z,53.05
2022-10-08T07:16:37.358Z,90.43
2022-10-08T07:19:05.752Z,74.50
2022-10-08T07:21:34.770Z,72.82
2022-10-08T07:24:05.403Z,63.67
2022-10-08T07:26:36.597Z,51.92
2022-10-08T07:29:08.252Z,35.42
2022-10-08T07:31:39.499Z,32.65
2022-10-08T07:34:11.965Z,58.13
2022-10-08T07:36:42.216Z,42.88
2022-10-08T07:39:15.193Z,40.38
2022-10-08T07:41:45.013Z,44.97
2022-10-08T07:44:14.395Z,80.03
2022-10-08T07:46:48.120Z,77.53
2022-10-08T07:49:17.269Z,28.70
2022-10-08T07:51:46.170Z,52.95
2022-10-08T07:54:17.604Z,45.53
2022-10-08T07:56:47.706Z,28.83
2022-10-08T07:59:16.844Z,52.65
2022-10-08T08:01:45.546Z,31.75
2022-10-08T08:04:14.700Z,37.63
2022-10-08T08:06:47.441Z,29.05
2022-10-08T08:09:18.240Z,31.35
2022-10-08T08:11:50.291Z,36.40
2022-10-08T08:14:20.783Z,35.97
2022-10-08T08:16:49.460Z,39.88
2022-10-08T08:19:17.769Z,36.00
2022-10-08T08:21:47.334Z,32.65
2022-10-08T08:24:16.593Z,24.52
2022-10-08T08:26:46.906Z,24.70
2022-10-08T08:29:18.216Z,28.83
2022-10-08T08:31:49.233Z,27.92
2022-10-08T08:34:24.193Z,29.33
2022-10-08T08:36:55.050Z,28.30
2022-10-08T08:39:27.338Z,27.17
2022-10-08T08:42:25.513Z,29.50
2022-10-08T08:45:00.730Z,23.92
2022-10-08T08:47:35.995Z,25.50
2022-10-08T08:50:28.170Z,26.52
2022-10-08T08:52:58.056Z,24.75
2022-10-08T08:55:36.365Z,25.17
2022-10-08T08:58:20.933Z,28.73
2022-10-08T09:00:56.675Z,26.75
2022-10-08T09:03:31.062Z,27.63
2022-10-08T09:06:06.830Z,27.55
2022-10-08T09:08:38.798Z,25.65
2022-10-08T09:11:07.712Z,28.92
2022-10-08T09:13:43.147Z,24.95
2022-10-08T09:16:14.014Z,23.92
2022-10-08T09:18:44.497Z,25.45
2022-10-08T09:21:14.025Z,29.60
2022-10-08T09:23:45.204Z,24.60
2022-10-08T09:26:19.441Z,27.40
2022-10-08T09:28:51.155Z,26.27
2022-10-08T09:31:26.973Z,27.30
2022-10-08T09:34:05.822Z,29.17
2022-10-08T09:36:37.814Z,26.88
2022-10-08T09:39:14.240Z,25.20
2022-10-08T09:41:42.737Z,26.95
2022-10-08T09:44:21.520Z,26.17
2022-10-08T09:47:06.101Z,24.75
2022-10-08T09:49:38.422Z,25.33
2022-10-08T09:52:17.160Z,24.73
2022-10-08T09:54:49.522Z,24.25
2022-10-08T09:57:21.657Z,23.55
2022-10-08T09:59:56.574Z,22.67
2022-10-08T10:02:32.217Z,24.77
2022-10-08T10:05:02.289Z,26.17
2022-10-08T10:07:43.632Z,25.48
2022-10-08T10:10:20.281Z,24.70
2022-10-08T10:12:53.887Z,23.63
2022-10-08T10:15:39.346Z,21.08
2022-10-08T10:18:16.098Z,21.10
2022-10-08T10:20:51.747Z,22.05
2022-10-08T10:23:26.756Z,23.20
2022-10-08T10:26:06.223Z,21.85
2022-10-08T10:28:43.684Z,19.88
2022-10-08T10:31:20.732Z,23.17
2022-10-08T10:33:57.199Z,22.52
2022-10-08T10:36:31.839Z,20.25
2022-10-08T10:39:24.048Z,20.40
2022-10-08T10:42:04.772Z,21.88
2022-10-08T10:44:48.555Z,17.42
2022-10-08T10:47:24.574Z,21.80
2022-10-08T10:49:54.887Z,19.85
2022-10-08T10:52:46.810Z,18.55
2022-10-08T10:55:24.273Z,18.80
2022-10-08T10:58:13.155Z,16.88
2022-10-08T11:00:55.197Z,18.20
2022-10-08T11:03:38.393Z,15.65
2022-10-08T11:06:56.045Z,21.45
2022-10-08T11:09:41.053Z,16.08
2022-10-08T11:12:25.805Z,19.60
2022-10-08T11:15:06.442Z,14.38
2022-10-08T11:17:55.829Z,22.13
2022-10-08T11:20:39.841Z,20.23
2022-10-08T11:23:22.551Z,21.42
2022-10-08T11:26:23.458Z,18.88
2022-10-08T11:28:59.591Z,15.82
2022-10-08T11:31:41.406Z,17.83
2022-10-08T11:34:22.874Z,21.88
2022-10-08T11:37:08.324Z,20.98
2022-10-08T11:39:48.384Z,20.35
2022-10-08T11:42:26.634Z,20.10
2022-10-08T11:44:55.660Z,21.02
2022-10-08T11:47:50.980Z,17.45
2022-10-08T11:50:32.343Z,19.92
2022-10-08T11:53:21.673Z,19.70
2022-10-08T11:55:54.182Z,26.02
2022-10-08T11:58:28.066Z,52.08
2022-10-08T12:01:04.754Z,20.52
2022-10-08T12:03:37.288Z,24.02
2022-10-08T12:06:19.935Z,19.77
2022-10-08T12:08:57.162Z,26.83
2022-10-08T12:11:49.156Z,18.20
2022-10-08T12:14:49.109Z,20.00
2022-10-08T12:17:18.533Z,14.98
2022-10-08T12:20:05.670Z,15.25
2022-10-08T12:22:46.601Z,14.48
2022-10-08T12:25:39.713Z,13.50
2022-10-08T12:28:50.462Z,19.42
2022-10-08T12:31:29.832Z,19.27
2022-10-08T12:34:15.200Z,20.63
2022-10-08T12:36:56.866Z,22.50
2022-10-08T12:39:37.263Z,17.17
2022-10-08T12:42:22.176Z,16.90
2022-10-08T12:45:09.199Z,16.67
2022-10-08T12:47:50.259Z,17.10
2022-10-08T12:50:37.866Z,19.88
2022-10-08T12:53:09.039Z,17.23
2022-10-08T12:55:47.658Z,16.23
2022-10-08T12:58:22.076Z,18.08
2022-10-08T13:00:57.974Z,18.30
2022-10-08T13:03:26.515Z,15.35
2022-10-08T13:05:56.631Z,16.10
2022-10-08T13:08:34.851Z,13.98
2022-10-08T13:11:07.014Z,13.70
2022-10-08T13:13:50.395Z,15.60
2022-10-08T13:16:22.856Z,16.15
2022-10-08T13:18:54.351Z,17.25
2022-10-08T13:21:55.931Z,15.57
2022-10-08T13:24:38.710Z,15.95
2022-10-08T13:27:07.833Z,16.08
2022-10-08T13:29:38.992Z,14.07
2022-10-08T13:32:21.596Z,12.88
2022-10-08T13:34:52.986Z,14.15
2022-10-08T13:37:33.903Z,14.45
2022-10-08T13:40:06.102Z,14.98
2022-10-08T13:42:41.498Z,14.10
2022-10-08T13:45:16.914Z,13.63
2022-10-08T13:47:45.469Z,11.68
2022-10-08T13:50:14.608Z,12.82
2022-10-08T13:52:46.960Z,8.43
2022-10-08T13:55:24.439Z,10.07
2022-10-08T13:57:53.132Z,12.48
2022-10-08T14:00:23.306Z,17.35
2022-10-08T14:02:52.429Z,10.02
2022-10-08T14:05:21.107Z,9.75
2022-10-08T14:07:52.904Z,8.23
2022-10-08T14:10:21.395Z,9.63
2022-10-08T14:12:50.031Z,12.38
2022-10-08T14:15:20.486Z,8.93
2022-10-08T14:17:50.752Z,12.80
2022-10-08T14:20:19.633Z,11.15
2022-10-08T14:22:49.347Z,10.43
2022-10-08T14:25:21.059Z,13.55
2022-10-08T14:27:51.166Z,9.40
2022-10-08T14:30:20.314Z,11.43
2022-10-08T14:32:50.347Z,10.63
2022-10-08T14:35:23.739Z,10.35
2022-10-08T14:37:52.344Z,8.40
2022-10-08T14:40:26.323Z,8.40
2022-10-08T14:42:56.984Z,11.93
2022-10-08T14:45:25.479Z,14.07
2022-10-08T14:47:55.849Z,11.52
2022-10-08T14:50:24.333Z,8.75
2022-10-08T14:52:52.850Z,8.68
2022-10-08T14:55:21.243Z,9.32
2022-10-08T14:57:51.255Z,9.25
2022-10-08T15:00:19.747Z,11.10
2022-10-08T15:02:48.342Z,7.63
2022-10-08T15:05:18.419Z,9.20
2022-10-08T15:07:47.958Z,36.55
2022-10-08T15:10:16.910Z,15.93
2022-10-08T15:12:45.807Z,13.27
2022-10-08T15:15:14.440Z,10.95
2022-10-08T15:17:43.391Z,6.82
2022-10-08T15:20:11.995Z,8.27
2022-10-08T15:22:41.922Z,7.03
2022-10-08T15:25:11.027Z,7.40
2022-10-08T15:27:39.367Z,7.70
2022-10-08T15:30:09.823Z,9.50
2022-10-08T15:32:39.164Z,21.30
2022-10-08T15:35:08.488Z,18.92
2022-10-08T15:37:36.960Z,23.40
2022-10-08T15:40:08.140Z,10.38
2022-10-08T15:42:36.779Z,11.88
2022-10-08T15:45:08.791Z,9.93
2022-10-08T15:47:37.447Z,8.60
2022-10-08T15:50:09.355Z,7.07
2022-10-08T15:52:42.953Z,7.50
2022-10-08T15:55:16.112Z,7.57
2022-10-08T15:57:44.518Z,7.28
2022-10-08T16:00:14.663Z,7.28
2022-10-08T16:02:43.151Z,8.23
2022-10-08T16:05:11.896Z,22.77
2022-10-08T16:07:40.252Z,15.70
2022-10-08T16:10:09.544Z,16.02
2022-10-08T16:12:41.610Z,12.00
2022-10-08T16:15:11.188Z,7.72
2022-10-08T16:17:39.481Z,12.55
2022-10-08T16:20:09.250Z,13.63
2022-10-08T16:22:37.684Z,28.52
2022-10-08T16:25:06.762Z,24.35
2022-10-08T16:27:35.150Z,19.48
2022-10-08T16:30:05.724Z,13.45
2022-10-08T16:32:36.739Z,11.13
2022-10-08T16:35:05.811Z,12.95
2022-10-08T16:37:34.649Z,8.48
2022-10-08T16:40:07.931Z,10.18
2022-10-08T16:42:36.690Z,8.85
2022-10-08T16:45:08.064Z,15.02
2022-10-08T16:47:36.435Z,8.50
2022-10-08T16:50:07.015Z,13.10
2022-10-08T16:52:35.656Z,11.40
2022-10-08T16:55:04.968Z,10.48
2022-10-08T16:57:35.173Z,9.38
2022-10-08T17:00:06.554Z,9.23
2022-10-08T17:02:34.908Z,9.35
2022-10-08T17:05:03.358Z,9.43
2022-10-08T17:07:32.162Z,9.35
2022-10-08T17:10:00.551Z,14.68
2022-10-08T17:12:29.997Z,7.30
2022-10-08T17:15:01.045Z,9.65
2022-10-08T17:17:30.928Z,9.23
2022-10-08T17:19:59.349Z,24.50
2022-10-08T17:22:29.963Z,15.05
2022-10-08T17:24:58.249Z,44.03
2022-10-08T17:27:26.797Z,178.75
2022-10-08T17:29:55.217Z,30.05
2022-10-08T17:32:23.620Z,18.05
2022-10-08T17:34:53.508Z,20.58
2022-10-08T17:37:25.427Z,19.42
2022-10-08T17:39:54.724Z,20.42
2022-10-08T17:42:23.074Z,17.00
2022-10-08T17:44:51.708Z,14.43
2022-10-08T17:47:20.103Z,15.65
2022-10-08T17:49:48.734Z,16.80
2022-10-08T17:52:18.416Z,12.15
2022-10-08T17:54:46.766Z,13.43
2022-10-08T17:57:17.807Z,8.63
2022-10-08T17:59:47.184Z,14.50
2022-10-08T18:02:15.569Z,16.63
2022-10-08T18:04:43.871Z,13.02
2022-10-08T18:07:14.672Z,24.42
2022-10-08T18:09:44.446Z,18.80
2022-10-08T18:12:14.250Z,22.58
2022-10-08T18:14:42.497Z,11.82
2022-10-08T18:17:10.893Z,11.63
2022-10-08T18:19:40.316Z,12.85
2022-10-08T18:22:09.361Z,9.85
2022-10-08T18:24:38.731Z,11.90
2022-10-08T18:27:09.045Z,13.15
2022-10-08T18:29:37.520Z,9.35
2022-10-08T18:32:06.947Z,9.45
2022-10-08T18:34:35.802Z,8.43
2022-10-08T18:37:04.239Z,22.17
2022-10-08T18:39:32.807Z,9.88
2022-10-08T18:42:01.349Z,7.68
2022-10-08T18:44:31.426Z,9.50
2022-10-08T18:47:05.097Z,8.20
2022-10-08T18:49:37.931Z,9.40
2022-10-08T18:52:06.345Z,10.95
2022-10-08T18:54:36.520Z,13.15
2022-10-08T18:57:07.273Z,8.90
2022-10-08T18:59:36.978Z,11.00
2022-10-08T19:02:08.380Z,12.48
2022-10-08T19:04:37.022Z,11.23
2022-10-08T19:07:05.422Z,10.35
2022-10-08T19:09:34.033Z,10.00
2022-10-08T19:12:02.530Z,6.45
2022-10-08T19:14:30.889Z,7.85
2022-10-08T19:17:02.970Z,7.43
2022-10-08T19:19:32.776Z,10.48
2022-10-08T19:22:01.748Z,7.18
2022-10-08T19:24:31.137Z,7.72
2022-10-08T19:26:59.502Z,8.85
2022-10-08T19:29:33.631Z,21.90
2022-10-08T19:32:03.542Z,29.55
2022-10-08T19:34:33.419Z,12.93
2022-10-08T19:37:02.092Z,16.38
2022-10-08T19:39:31.933Z,17.77
2022-10-08T19:42:00.277Z,8.55
2022-10-08T19:44:28.663Z,13.73
2022-10-08T19:46:56.989Z,15.68
2022-10-08T19:49:26.742Z,7.43
2022-10-08T19:51:55.251Z,8.95
2022-10-08T19:54:25.721Z,7.15
2022-10-08T19:56:56.312Z,11.60
2022-10-08T19:59:25.683Z,9.45
2022-10-08T20:01:55.027Z,7.22
2022-10-08T20:04:25.705Z,6.72
2022-10-08T20:06:56.742Z,7.75
2022-10-08T20:09:25.993Z,7.78
2022-10-08T20:11:57.004Z,15.73
2022-10-08T20:14:25.706Z,21.65
2022-10-08T20:16:54.301Z,14.25
2022-10-08T20:19:23.889Z,9.93
2022-10-08T20:21:56.512Z,12.45
2022-10-08T20:24:25.145Z,9.65
2022-10-08T20:26:53.494Z,13.32
2022-10-08T20:29:28.662Z,11.80
2022-10-08T20:31:59.765Z,8.65
2022-10-08T20:34:31.256Z,18.50
2022-10-08T20:37:03.483Z,17.85
2022-10-08T20:39:33.358Z,10.50
2022-10-08T20:42:01.795Z,13.60
2022-10-08T20:44:30.395Z,14.55
2022-10-08T20:47:01.238Z,9.63
2022-10-08T20:49:34.004Z,16.40
2022-10-08T20:52:05.618Z,21.92
2022-10-08T20:54:35.557Z,13.50
2022-10-08T20:57:04.012Z,16.65
2022-10-08T20:59:34.422Z,13.68
2022-10-08T21:02:03.879Z,18.00
2022-10-08T21:04:32.547Z,14.18
2022-10-08T21:07:01.279Z,13.70
2022-10-08T21:09:31.206Z,10.80
2022-10-08T21:11:59.852Z,17.58
2022-10-08T21:14:29.797Z,32.22
2022-10-08T21:16:58.175Z,25.80
2022-10-08T21:19:27.792Z,24.20
2022-10-08T21:21:56.453Z,27.38
2022-10-08T21:24:26.241Z,41.47
2022-10-08T21:26:57.329Z,73.57
2022-10-08T21:29:25.929Z,63.88
2022-10-08T21:31:56.610Z,25.95
2022-10-08T21:34:25.094Z,21.30
2022-10-08T21:36:53.539Z,29.85
2022-10-08T21:39:22.950Z,23.20
2022-10-08T21:41:52.592Z,22.48
2022-10-08T21:44:23.084Z,17.70
2022-10-08T21:46:52.723Z,9.77
2022-10-08T21:49:21.577Z,11.88
2022-10-08T21:51:52.338Z,8.77
2022-10-08T21:54:21.621Z,7.53
2022-10-08T21:56:50.043Z,12.00
2022-10-08T21:59:20.933Z,6.18
2022-10-08T22:01:53.041Z,5.22
2022-10-08T22:04:26.625Z,5.25
2022-10-08T22:06:58.177Z,8.00
2022-10-08T22:09:29.951Z,6.18
2022-10-08T22:12:00.407Z,8.02
2022-10-08T22:14:37.814Z,7.55
2022-10-08T22:17:12.830Z,4.78
2022-10-08T22:19:41.301Z,11.68
2022-10-08T22:22:09.846Z,6.32
2022-10-08T22:24:38.604Z,6.10
2022-10-08T22:27:09.435Z,5.15
2022-10-08T22:29:41.909Z,7.93
2022-10-08T22:32:12.208Z,4.78
2022-10-08T22:34:40.807Z,5.80
2022-10-08T22:37:09.356Z,5.18
2022-10-08T22:39:38.200Z,7.35
2022-10-08T22:42:07.157Z,8.95
2022-10-08T22:44:35.934Z,8.27
2022-10-08T22:47:05.898Z,6.07
2022-10-08T22:49:34.797Z,7.93
2022-10-08T22:52:03.058Z,7.78
2022-10-08T22:54:32.272Z,6.00
2022-10-08T22:57:00.790Z,9.07
2022-10-08T22:59:30.767Z,8.40
2022-10-08T23:02:00.059Z,4.55
2022-10-08T23:04:31.336Z,7.93
2022-10-08T23:07:01.085Z,7.97
2022-10-08T23:09:29.699Z,4.97
2022-10-08T23:11:58.437Z,4.07
2022-10-08T23:14:27.802Z,4.75
2022-10-08T23:16:57.232Z,5.10
2022-10-08T23:19:30.900Z,5.38
2022-10-08T23:22:02.922Z,4.97
2022-10-08T23:24:32.463Z,7.80
2022-10-08T23:27:06.422Z,7.15
2022-10-08T23:29:39.643Z,6.03
2022-10-08T23:32:08.992Z,6.53
2022-10-08T23:34:38.778Z,6.78
2022-10-08T23:37:09.102Z,4.13
2022-10-08T23:39:39.180Z,7.85
2022-10-08T23:42:07.778Z,4.85
2022-10-08T23:44:36.921Z,7.35
2022-10-08T23:47:08.859Z,4.03
2022-10-08T23:49:41.459Z,5.63
2022-10-08T23:52:13.698Z,5.38
2022-10-08T23:54:43.758Z,5.53
2022-10-08T23:57:13.777Z,5.53
2022-10-08T23:59:45.201Z,5.53
